sensor_id;sensor_type;location;lat;lon;timestamp;temperature;humidity
41080;DHT22;26826;50.718;7.114;2022-10-13T00:09:17;10.80;99.90
41080;DHT22;26826;50.718;7.114;2022-10-13T00:19:18;10.90;99.90
41080;DHT22;26826;50.718;7.114;2022-10-13T00:29:18;10.90;99.90
41080;DHT22;26826;50.718;7.114;2022-10-13T00:39:19;11.00;99.90
41080;DHT22;26826;50.718;7.114;2022-10-13T00:49:19;11.00;99.90
41080;DHT22;26826;50.718;7.114;2022-10-13T00:59:23;11.00;99.90
41080;DHT22;26826;50.718;7.114;2022-10-13T01:09:26;10.80;99.90
41080;DHT22;26826;50.718;7.114;2022-10-13T01:40:30;10.70;99.90
41080;DHT22;26826;50.718;7.114;2022-10-13T01:50:33;10.70;99.90
41080;DHT22;26826;50.718;7.114;2022-10-13T02:00:42;10.90;99.90
41080;DHT22;26826;50.718;7.114;2022-10-13T02:10:55;10.90;99.90
41080;DHT22;26826;50.718;7.114;2022-10-13T02:20:58;10.90;99.90
41080;DHT22;26826;50.718;7.114;2022-10-13T02:30:59;10.70;99.90
41080;DHT22;26826;50.718;7.114;2022-10-13T02:41:00;10.50;99.90
41080;DHT22;26826;50.718;7.114;2022-10-13T02:51:02;10.40;99.90
41080;DHT22;26826;50.718;7.114;2022-10-13T03:01:11;10.40;99.90
41080;DHT22;26826;50.718;7.114;2022-10-13T03:11:12;10.40;99.90
41080;DHT22;26826;50.718;7.114;2022-10-13T03:21:12;10.30;99.90
41080;DHT22;26826;50.718;7.114;2022-10-13T03:31:13;10.40;99.90
41080;DHT22;26826;50.718;7.114;2022-10-13T03:41:16;10.30;99.90
41080;DHT22;26826;50.718;7.114;2022-10-13T03:51:19;10.20;99.90
41080;DHT22;26826;50.718;7.114;2022-10-13T04:01:21;10.20;99.90
41080;DHT22;26826;50.718;7.114;2022-10-13T04:11:22;10.30;99.90
41080;DHT22;26826;50.718;7.114;2022-10-13T04:21:23;10.40;99.90
41080;DHT22;26826;50.718;7.114;2022-10-13T04:31:27;10.40;99.90
41080;DHT22;26826;50.718;7.114;2022-10-13T04:41:28;10.40;99.90
41080;DHT22;26826;50.718;7.114;2022-10-13T04:51:28;10.50;99.90
41080;DHT22;26826;50.718;7.114;2022-10-13T05:01:29;10.60;99.90
41080;DHT22;26826;50.718;7.114;2022-10-13T05:11:30;10.80;99.90
41080;DHT22;26826;50.718;7.114;2022-10-13T05:21:31;11.00;99.90
41080;DHT22;26826;50.718;7.114;2022-10-13T05:31:33;11.20;99.90
41080;DHT22;26826;50.718;7.114;2022-10-13T05:41:34;11.10;99.90
41080;DHT22;26826;50.718;7.114;2022-10-13T05:51:41;11.10;99.90
41080;DHT22;26826;50.718;7.114;2022-10-13T06:01:43;10.90;99.90
41080;DHT22;26826;50.718;7.114;2022-10-13T06:11:43;10.90;99.90
41080;DHT22;26826;50.718;7.114;2022-10-13T06:21:44;10.70;99.90
41080;DHT22;26826;50.718;7.114;2022-10-13T06:31:44;10.80;99.90
41080;DHT22;26826;50.718;7.114;2022-10-13T06:41:45;10.80;99.90
41080;DHT22;26826;50.718;7.114;2022-10-13T06:51:45;10.80;99.90
41080;DHT22;26826;50.718;7.114;2022-10-13T07:01:47;10.80;99.90
41080;DHT22;26826;50.718;7.114;2022-10-13T07:11:48;10.90;99.90
41080;DHT22;26826;50.718;7.114;2022-10-13T07:21:49;11.00;99.90
41080;DHT22;26826;50.718;7.114;2022-10-13T07:31:49;11.10;99.90
41080;DHT22;26826;50.718;7.114;2022-10-13T07:41:50;11.20;99.90
41080;DHT22;26826;50.718;7.114;2022-10-13T07:51:51;11.40;99.90
41080;DHT22;26826;50.718;7.114;2022-10-13T08:01:51;11.50;99.90
41080;DHT22;26826;50.718;7.114;2022-10-13T08:11:52;11.80;99.90
41080;DHT22;26826;50.718;7.114;2022-10-13T08:21:53;11.80;99.90
41080;DHT22;26826;50.718;7.114;2022-10-13T08:31:54;12.20;99.90
41080;DHT22;26826;50.718;7.114;2022-10-13T08:41:55;12.40;99.90
41080;DHT22;26826;50.718;7.114;2022-10-13T08:51:57;12.90;99.90
41080;DHT22;26826;50.718;7.114;2022-10-13T09:01:58;13.10;99.90
41080;DHT22;26826;50.718;7.114;2022-10-13T09:11:59;13.60;99.90
41080;DHT22;26826;50.718;7.114;2022-10-13T09:22:27;13.80;99.90
41080;DHT22;26826;50.718;7.114;2022-10-13T09:32:34;14.50;99.90
41080;DHT22;26826;50.718;7.114;2022-10-13T09:42:34;14.50;99.90
41080;DHT22;26826;50.718;7.114;2022-10-13T09:52:35;14.70;99.90
41080;DHT22;26826;50.718;7.114;2022-10-13T10:13:04;15.30;99.90
41080;DHT22;26826;50.718;7.114;2022-10-13T10:23:11;15.70;99.90
41080;DHT22;26826;50.718;7.114;2022-10-13T10:34:10;15.80;99.90
41080;DHT22;26826;50.718;7.114;2022-10-13T10:43:54;16.20;99.90
41080;DHT22;26826;50.718;7.114;2022-10-13T11:04:40;16.70;99.90
41080;DHT22;26826;50.718;7.114;2022-10-13T11:14:41;17.10;99.90
41080;DHT22;26826;50.718;7.114;2022-10-13T11:24:46;16.90;99.90
41080;DHT22;26826;50.718;7.114;2022-10-13T11:45:33;17.10;99.90
41080;DHT22;26826;50.718;7.114;2022-10-13T11:55:52;17.50;99.90
41080;DHT22;26826;50.718;7.114;2022-10-13T12:05:55;17.90;99.90
41080;DHT22;26826;50.718;7.114;2022-10-13T12:16:04;18.00;99.90
41080;DHT22;26826;50.718;7.114;2022-10-13T12:26:05;17.50;99.90
41080;DHT22;26826;50.718;7.114;2022-10-13T12:36:11;17.20;99.90
41080;DHT22;26826;50.718;7.114;2022-10-13T12:46:12;17.20;99.90
41080;DHT22;26826;50.718;7.114;2022-10-13T12:56:27;17.10;99.90
41080;DHT22;26826;50.718;7.114;2022-10-13T13:06:34;17.00;99.90
41080;DHT22;26826;50.718;7.114;2022-10-13T13:16:35;16.50;99.90
41080;DHT22;26826;50.718;7.114;2022-10-13T13:26:36;16.20;99.90
41080;DHT22;26826;50.718;7.114;2022-10-13T13:36:36;15.70;99.90
41080;DHT22;26826;50.718;7.114;2022-10-13T13:46:37;15.30;99.90
41080;DHT22;26826;50.718;7.114;2022-10-13T13:56:37;15.00;99.90
41080;DHT22;26826;50.718;7.114;2022-10-13T14:06:38;15.00;99.90
41080;DHT22;26826;50.718;7.114;2022-10-13T14:16:39;15.10;99.90
41080;DHT22;26826;50.718;7.114;2022-10-13T14:26:40;14.90;99.90
41080;DHT22;26826;50.718;7.114;2022-10-13T14:36:41;15.00;99.90
41080;DHT22;26826;50.718;7.114;2022-10-13T14:46:41;14.90;99.90
41080;DHT22;26826;50.718;7.114;2022-10-13T14:56:42;14.80;99.90
41080;DHT22;26826;50.718;7.114;2022-10-13T15:06:44;14.80;99.90
41080;DHT22;26826;50.718;7.114;2022-10-13T15:16:44;14.80;99.90
41080;DHT22;26826;50.718;7.114;2022-10-13T15:26:45;14.80;99.90
41080;DHT22;26826;50.718;7.114;2022-10-13T15:46:49;14.70;99.90
41080;DHT22;26826;50.718;7.114;2022-10-13T15:56:50;14.60;99.90
41080;DHT22;26826;50.718;7.114;2022-10-13T16:06:50;14.70;99.90
41080;DHT22;26826;50.718;7.114;2022-10-13T16:16:51;14.60;99.90
41080;DHT22;26826;50.718;7.114;2022-10-13T16:26:52;14.50;99.90
41080;DHT22;26826;50.718;7.114;2022-10-13T16:36:53;14.40;99.90
41080;DHT22;26826;50.718;7.114;2022-10-13T16:46:53;14.40;99.90
41080;DHT22;26826;50.718;7.114;2022-10-13T16:56:56;14.30;99.90
41080;DHT22;26826;50.718;7.114;2022-10-13T17:06:56;14.20;99.90
41080;DHT22;26826;50.718;7.114;2022-10-13T17:16:57;14.20;99.90
41080;DHT22;26826;50.718;7.114;2022-10-13T17:26:57;14.10;99.90
41080;DHT22;26826;50.718;7.114;2022-10-13T17:36:58;14.20;99.90
41080;DHT22;26826;50.718;7.114;2022-10-13T17:46:58;14.00;99.90
41080;DHT22;26826;50.718;7.114;2022-10-13T17:56:59;14.00;99.90
41080;DHT22;26826;50.718;7.114;2022-10-13T18:06:59;14.00;99.90
41080;DHT22;26826;50.718;7.114;2022-10-13T18:17:00;14.00;99.90
41080;DHT22;26826;50.718;7.114;2022-10-13T18:27:00;13.90;99.90
41080;DHT22;26826;50.718;7.114;2022-10-13T18:37:01;14.10;99.90
41080;DHT22;26826;50.718;7.114;2022-10-13T18:47:04;14.10;99.90
41080;DHT22;26826;50.718;7.114;2022-10-13T18:57:06;14.20;99.90
41080;DHT22;26826;50.718;7.114;2022-10-13T19:07:06;14.10;99.90
41080;DHT22;26826;50.718;7.114;2022-10-13T19:17:07;14.00;99.90
41080;DHT22;26826;50.718;7.114;2022-10-13T19:27:07;13.90;99.90
41080;DHT22;26826;50.718;7.114;2022-10-13T19:37:08;13.80;99.90
41080;DHT22;26826;50.718;7.114;2022-10-13T19:47:15;13.80;99.90
41080;DHT22;26826;50.718;7.114;2022-10-13T19:57:32;13.80;99.90
41080;DHT22;26826;50.718;7.114;2022-10-13T20:07:36;13.70;99.90
41080;DHT22;26826;50.718;7.114;2022-10-13T20:17:43;13.60;99.90
41080;DHT22;26826;50.718;7.114;2022-10-13T20:27:46;13.50;99.90
41080;DHT22;26826;50.718;7.114;2022-10-13T20:37:54;13.50;99.90
41080;DHT22;26826;50.718;7.114;2022-10-13T20:47:57;13.40;99.90
41080;DHT22;26826;50.718;7.114;2022-10-13T20:58:01;13.30;99.90
41080;DHT22;26826;50.718;7.114;2022-10-13T21:08:07;13.30;99.90
41080;DHT22;26826;50.718;7.114;2022-10-13T21:18:11;13.20;99.90
41080;DHT22;26826;50.718;7.114;2022-10-13T21:28:12;13.30;99.90
41080;DHT22;26826;50.718;7.114;2022-10-13T21:38:13;13.30;99.90
41080;DHT22;26826;50.718;7.114;2022-10-13T21:48:13;13.40;99.90
41080;DHT22;26826;50.718;7.114;2022-10-13T21:58:14;13.20;99.90
41080;DHT22;26826;50.718;7.114;2022-10-13T22:08:15;13.30;99.90
41080;DHT22;26826;50.718;7.114;2022-10-13T22:18:15;13.30;99.90
41080;DHT22;26826;50.718;7.114;2022-10-13T22:28:16;13.20;99.90
41080;DHT22;26826;50.718;7.114;2022-10-13T22:38:16;13.20;99.90
41080;DHT22;26826;50.718;7.114;2022-10-13T22:48:17;13.20;99.90
41080;DHT22;26826;50.718;7.114;2022-10-13T22:58:17;13.10;99.90
41080;DHT22;26826;50.718;7.114;2022-10-13T23:08:18;13.00;99.90
41080;DHT22;26826;50.718;7.114;2022-10-13T23:18:18;12.90;99.90
41080;DHT22;26826;50.718;7.114;2022-10-13T23:28:19;13.00;99.90
41080;DHT22;26826;50.718;7.114;2022-10-13T23:38:19;12.90;99.90
41080;DHT22;26826;50.718;7.114;2022-10-13T23:48:20;12.90;99.90
41080;DHT22;26826;50.718;7.114;2022-10-13T23:58:20;12.90;99.90
